createdAt,value
2023-03-06T00:01:33.422Z,90.26
2023-03-06T00:04:08.363Z,91.04
2023-03-06T00:06:41.707Z,90.64
2023-03-06T00:09:14.640Z,91.22
2023-03-06T00:11:47.442Z,90.89
2023-03-06T00:14:21.613Z,91.24
2023-03-06T00:16:55.270Z,90.78
2023-03-06T00:19:28.788Z,90.46
2023-03-06T00:22:03.124Z,92.63
2023-03-06T00:24:36.259Z,91.72
2023-03-06T00:27:09.338Z,92.11
2023-03-06T00:29:44.700Z,92.60
2023-03-06T00:32:18.461Z,92.23
2023-03-06T00:34:52.187Z,92.02
2023-03-06T00:37:25.945Z,92.05
2023-03-06T00:39:59.834Z,93.32
2023-03-06T00:42:32.699Z,92.82
2023-03-06T00:45:08.487Z,92.01
2023-03-06T00:47:41.689Z,91.83
2023-03-06T00:50:14.486Z,92.59
2023-03-06T00:52:47.343Z,91.86
2023-03-06T00:55:20.254Z,91.24
2023-03-06T00:57:53.098Z,91.38
2023-03-06T01:00:27.430Z,91.51
2023-03-06T01:03:00.615Z,91.99
2023-03-06T01:05:36.457Z,91.89
2023-03-06T01:08:09.316Z,92.40
2023-03-06T01:10:42.340Z,92.28
2023-03-06T01:13:15.470Z,93.20
2023-03-06T01:15:49.750Z,94.20
2023-03-06T01:18:22.561Z,93.97
2023-03-06T01:20:55.381Z,93.94
2023-03-06T01:23:28.203Z,93.42
2023-03-06T01:26:01.923Z,93.25
2023-03-06T01:28:35.361Z,93.27
2023-03-06T01:31:11.464Z,93.17
2023-03-06T01:33:44.251Z,93.36
2023-03-06T01:36:17.537Z,93.97
2023-03-06T01:38:51.371Z,93.46
2023-03-06T01:41:24.368Z,93.62
2023-03-06T01:43:57.187Z,93.21
2023-03-06T01:46:37.858Z,93.17
2023-03-06T01:49:19.400Z,94.09
2023-03-06T01:51:56.727Z,94.25
2023-03-06T01:54:33.567Z,93.48
2023-03-06T01:57:10.784Z,93.57
2023-03-06T01:59:44.020Z,93.95
2023-03-06T02:02:18.592Z,94.15
2023-03-06T02:04:51.628Z,93.83
2023-03-06T02:07:24.667Z,94.29
2023-03-06T02:09:57.469Z,94.04
2023-03-06T02:12:30.841Z,93.94
2023-03-06T02:15:04.308Z,94.18
2023-03-06T02:17:38.641Z,94.35
2023-03-06T02:20:14.653Z,94.53
2023-03-06T02:22:54.880Z,94.70
2023-03-06T02:25:39.584Z,94.88
2023-03-06T02:28:14.427Z,93.80
2023-03-06T02:30:49.155Z,93.53
2023-03-06T02:33:25.637Z,94.54
2023-03-06T02:36:00.996Z,94.42
2023-03-06T02:38:38.647Z,93.83
2023-03-06T02:41:13.220Z,93.38
2023-03-06T02:43:49.035Z,93.68
2023-03-06T02:46:22.017Z,92.78
2023-03-06T02:48:54.913Z,93.14
2023-03-06T02:51:28.293Z,92.52
2023-03-06T02:54:01.147Z,93.78
2023-03-06T02:56:35.361Z,94.85
2023-03-06T02:59:08.648Z,94.34
2023-03-06T03:01:41.634Z,93.98
2023-03-06T03:04:14.596Z,94.15
2023-03-06T03:06:47.429Z,94.42
2023-03-06T03:09:20.848Z,94.48
2023-03-06T03:11:55.122Z,95.31
2023-03-06T03:14:28.105Z,95.60
2023-03-06T03:17:02.398Z,95.87
2023-03-06T03:19:36.236Z,95.00
2023-03-06T03:22:09.130Z,94.98
2023-03-06T03:24:42.321Z,95.06
2023-03-06T03:27:17.382Z,95.22
2023-03-06T03:29:50.297Z,95.54
2023-03-06T03:32:23.278Z,95.09
2023-03-06T03:34:57.006Z,94.44
2023-03-06T03:37:31.430Z,94.23
2023-03-06T03:40:06.566Z,94.40
2023-03-06T03:42:41.237Z,94.35
2023-03-06T03:45:15.158Z,93.94
2023-03-06T03:47:48.088Z,94.05
2023-03-06T03:50:21.094Z,93.81
2023-03-06T03:52:54.072Z,93.55
2023-03-06T03:55:27.530Z,94.19
2023-03-06T03:58:05.517Z,94.37
2023-03-06T04:00:38.972Z,94.39
2023-03-06T04:03:17.957Z,94.14
2023-03-06T04:05:53.894Z,93.87
2023-03-06T04:08:27.294Z,93.75
2023-03-06T04:11:00.196Z,93.60
2023-03-06T04:13:35.839Z,94.15
2023-03-06T04:16:09.953Z,94.14
2023-03-06T04:18:44.635Z,93.74
2023-03-06T04:21:17.516Z,93.84
2023-03-06T04:23:50.713Z,93.81
2023-03-06T04:26:23.563Z,94.08
2023-03-06T04:28:58.443Z,94.57
2023-03-06T04:31:31.407Z,95.14
2023-03-06T04:34:04.412Z,94.50
2023-03-06T04:36:37.699Z,94.48
2023-03-06T04:39:15.368Z,94.96
2023-03-06T04:41:48.173Z,93.54
2023-03-06T04:44:22.840Z,94.47
2023-03-06T04:46:55.635Z,94.36
2023-03-06T04:49:28.496Z,94.71
2023-03-06T04:52:01.704Z,94.82
2023-03-06T04:54:34.503Z,94.50
2023-03-06T04:57:07.334Z,93.88
2023-03-06T04:59:41.526Z,93.89
2023-03-06T05:02:14.414Z,93.96
2023-03-06T05:04:47.216Z,94.34
2023-03-06T05:07:20.047Z,94.29
2023-03-06T05:09:53.245Z,94.58
2023-03-06T05:12:26.201Z,93.63
2023-03-06T05:15:00.317Z,95.01
2023-03-06T05:17:33.465Z,93.76
2023-03-06T05:20:08.443Z,93.83
2023-03-06T05:22:41.411Z,94.33
2023-03-06T05:25:14.396Z,93.22
2023-03-06T05:27:47.567Z,93.85
2023-03-06T05:30:23.135Z,93.51
2023-03-06T05:32:55.963Z,93.19
2023-03-06T05:35:29.381Z,93.75
2023-03-06T05:38:03.115Z,94.11
2023-03-06T05:40:35.907Z,94.27
2023-03-06T05:43:09.124Z,94.84
2023-03-06T05:45:43.318Z,94.38
2023-03-06T05:48:16.150Z,93.83
2023-03-06T05:50:56.131Z,93.84
2023-03-06T05:53:29.269Z,94.23
2023-03-06T05:56:04.241Z,93.80
2023-03-06T05:58:37.392Z,93.91
2023-03-06T06:01:13.293Z,93.94
2023-03-06T06:03:46.418Z,94.10
2023-03-06T06:06:19.439Z,94.15
2023-03-06T06:08:52.229Z,95.18
2023-03-06T06:11:25.197Z,94.31
2023-03-06T06:13:57.967Z,94.20
2023-03-06T06:16:32.427Z,94.55
2023-03-06T06:19:05.434Z,95.17
2023-03-06T06:21:38.248Z,94.62
2023-03-06T06:24:11.039Z,94.48
2023-03-06T06:26:44.209Z,94.64
2023-03-06T06:29:19.979Z,94.67
2023-03-06T06:31:55.205Z,94.73
2023-03-06T06:34:30.399Z,94.79
2023-03-06T06:37:03.356Z,94.45
2023-03-06T06:39:36.327Z,94.06
2023-03-06T06:42:28.597Z,94.51
2023-03-06T06:45:02.827Z,94.82
2023-03-06T06:47:40.905Z,94.66
2023-03-06T06:50:14.904Z,94.49
2023-03-06T06:52:47.870Z,94.36
2023-03-06T06:55:20.716Z,94.03
2023-03-06T06:57:53.521Z,94.73
2023-03-06T07:00:27.030Z,94.48
2023-03-06T07:03:01.540Z,94.67
2023-03-06T07:05:34.503Z,94.32
2023-03-06T07:08:07.515Z,95.19
2023-03-06T07:10:40.349Z,94.62
2023-03-06T07:13:13.406Z,95.10
2023-03-06T07:15:46.221Z,94.34
2023-03-06T07:18:20.347Z,93.91
2023-03-06T07:20:54.635Z,94.06
2023-03-06T07:23:27.490Z,93.67
2023-03-06T07:26:00.354Z,94.71
2023-03-06T07:28:46.178Z,93.88
2023-03-06T07:31:27.379Z,94.38
2023-03-06T07:34:04.728Z,94.58
2023-03-06T07:36:39.520Z,95.33
2023-03-06T07:39:12.290Z,94.42
2023-03-06T07:41:45.315Z,94.31
2023-03-06T07:44:18.242Z,93.63
2023-03-06T07:46:51.161Z,94.09
2023-03-06T07:49:25.437Z,94.61
2023-03-06T07:51:59.199Z,94.01
2023-03-06T07:54:32.588Z,94.09
2023-03-06T07:57:05.377Z,94.27
2023-03-06T07:59:38.158Z,94.31
2023-03-06T08:02:11.794Z,95.06
2023-03-06T08:04:46.119Z,95.12
2023-03-06T08:07:19.029Z,95.94
2023-03-06T08:09:52.078Z,95.40
2023-03-06T08:12:24.876Z,96.00
2023-03-06T08:14:57.785Z,96.54
2023-03-06T08:17:30.961Z,96.94
2023-03-06T08:20:06.601Z,97.16
2023-03-06T08:22:39.758Z,97.61
2023-03-06T08:25:14.252Z,97.64
2023-03-06T08:27:47.770Z,97.88
2023-03-06T08:30:21.456Z,97.65
2023-03-06T08:32:54.300Z,97.50
2023-03-06T08:35:28.478Z,97.49
2023-03-06T08:38:01.255Z,97.43
2023-03-06T08:40:34.046Z,97.35
2023-03-06T08:43:11.308Z,98.23
2023-03-06T08:45:45.321Z,98.02
2023-03-06T08:48:18.644Z,98.68
2023-03-06T08:50:53.524Z,98.46
2023-03-06T08:53:41.720Z,97.48
2023-03-06T08:56:16.633Z,98.12
2023-03-06T08:58:50.125Z,98.02
2023-03-06T09:01:24.674Z,97.84
2023-03-06T09:03:59.890Z,97.04
2023-03-06T09:06:36.401Z,96.38
2023-03-06T09:09:09.793Z,95.85
2023-03-06T09:11:42.719Z,95.39
2023-03-06T09:14:15.549Z,95.76
2023-03-06T09:16:49.878Z,94.10
2023-03-06T09:19:23.765Z,94.66
2023-03-06T09:22:00.899Z,94.65
2023-03-06T09:24:34.193Z,93.05
2023-03-06T09:27:07.605Z,93.58
2023-03-06T09:29:40.374Z,91.27
2023-03-06T09:32:13.215Z,92.17
2023-03-06T09:34:46.118Z,92.57
2023-03-06T09:37:20.525Z,90.34
2023-03-06T09:39:53.297Z,91.26
2023-03-06T09:42:28.185Z,91.46
2023-03-06T09:45:02.078Z,91.13
2023-03-06T09:47:48.865Z,89.56
2023-03-06T09:50:33.264Z,89.15
2023-03-06T09:53:32.829Z,90.06
2023-03-06T09:56:12.662Z,89.45
2023-03-06T09:58:50.799Z,89.44
2023-03-06T10:01:27.915Z,89.69
2023-03-06T10:04:12.433Z,89.95
2023-03-06T10:06:49.728Z,89.90
2023-03-06T10:09:28.170Z,89.47
2023-03-06T10:12:06.544Z,88.73
2023-03-06T10:14:47.759Z,89.33
2023-03-06T10:17:23.904Z,88.97
2023-03-06T10:19:56.569Z,89.29
2023-03-06T10:22:32.959Z,90.41
2023-03-06T10:25:13.577Z,89.88
2023-03-06T10:27:49.126Z,89.90
2023-03-06T10:30:32.573Z,89.63
2023-03-06T10:33:10.342Z,89.65
2023-03-06T10:35:48.291Z,89.47
2023-03-06T10:38:23.364Z,90.14
2023-03-06T10:41:07.626Z,90.15
2023-03-06T10:43:42.622Z,88.93
2023-03-06T10:46:28.375Z,89.31
2023-03-06T10:49:02.586Z,89.74
2023-03-06T10:51:35.723Z,89.08
2023-03-06T10:54:20.518Z,88.61
2023-03-06T10:56:54.676Z,86.82
2023-03-06T10:59:29.333Z,87.35
2023-03-06T11:02:26.699Z,86.62
2023-03-06T11:05:02.077Z,86.55
2023-03-06T11:07:53.435Z,84.22
2023-03-06T11:10:27.273Z,84.66
2023-03-06T11:13:06.092Z,84.17
2023-03-06T11:15:38.897Z,82.13
2023-03-06T11:18:31.106Z,82.00
2023-03-06T11:21:08.871Z,80.21
2023-03-06T11:23:44.710Z,80.30
2023-03-06T11:26:29.741Z,76.10
2023-03-06T11:29:37.510Z,76.95
2023-03-06T11:32:17.343Z,76.19
2023-03-06T11:34:54.080Z,76.25
2023-03-06T11:37:43.265Z,74.73
2023-03-06T11:40:21.088Z,75.29
2023-03-06T11:43:04.252Z,76.92
2023-03-06T11:45:45.866Z,77.01
2023-03-06T11:48:27.829Z,79.29
2023-03-06T11:51:07.877Z,78.89
2023-03-06T11:53:42.699Z,76.68
2023-03-06T11:56:28.872Z,76.53
2023-03-06T11:59:24.793Z,76.06
2023-03-06T12:02:08.003Z,70.90
2023-03-06T12:04:53.708Z,72.10
2023-03-06T12:07:33.862Z,72.26
2023-03-06T12:10:16.684Z,71.94
2023-03-06T12:13:15.854Z,68.07
2023-03-06T12:16:05.379Z,69.06
2023-03-06T12:18:51.055Z,66.05
2023-03-06T12:21:34.700Z,67.25
2023-03-06T12:24:25.663Z,67.11
2023-03-06T12:27:13.393Z,66.39
2023-03-06T12:30:01.541Z,67.67
2023-03-06T12:32:47.422Z,70.27
2023-03-06T12:35:48.365Z,69.78
2023-03-06T12:39:00.639Z,71.60
2023-03-06T12:41:43.819Z,70.28
2023-03-06T12:44:39.047Z,70.57
2023-03-06T12:47:16.157Z,66.37
2023-03-06T12:49:54.188Z,70.07
2023-03-06T12:52:31.966Z,68.95
2023-03-06T12:55:08.565Z,66.29
2023-03-06T12:57:45.555Z,65.63
2023-03-06T13:01:03.719Z,64.33
2023-03-06T13:03:51.081Z,63.71
2023-03-06T13:06:49.910Z,64.40
2023-03-06T13:09:35.460Z,61.04
2023-03-06T13:12:32.915Z,65.18
2023-03-06T13:15:30.936Z,62.09
2023-03-06T13:18:26.504Z,60.34
2023-03-06T13:20:59.875Z,61.09
2023-03-06T13:23:51.562Z,61.05
2023-03-06T13:27:01.003Z,57.72
2023-03-06T13:30:06.127Z,57.98
2023-03-06T13:32:39.031Z,59.40
2023-03-06T13:35:46.844Z,58.92
2023-03-06T13:38:31.663Z,59.17
2023-03-06T13:41:43.628Z,59.08
2023-03-06T13:44:52.178Z,59.42
2023-03-06T13:48:15.606Z,58.75
2023-03-06T13:50:45.259Z,59.07
2023-03-06T13:54:09.109Z,60.19
2023-03-06T13:57:20.358Z,59.69
2023-03-06T14:00:24.187Z,60.63
2023-03-06T14:03:36.033Z,58.64
2023-03-06T14:06:42.305Z,55.82
2023-03-06T14:09:24.860Z,54.91
2023-03-06T14:12:01.506Z,54.51
2023-03-06T14:14:43.406Z,52.63
2023-03-06T14:17:26.286Z,50.55
2023-03-06T14:20:02.584Z,51.90
2023-03-06T14:22:35.428Z,55.41
2023-03-06T14:25:17.054Z,53.49
2023-03-06T14:27:51.523Z,51.45
2023-03-06T14:30:26.933Z,51.48
2023-03-06T14:33:01.138Z,50.33
2023-03-06T14:35:34.241Z,50.28
2023-03-06T14:38:08.014Z,48.93
2023-03-06T14:40:44.761Z,49.04
2023-03-06T14:43:21.429Z,46.67
2023-03-06T14:45:57.200Z,50.30
2023-03-06T14:48:41.164Z,50.50
2023-03-06T14:51:19.949Z,48.92
2023-03-06T14:53:54.921Z,48.53
2023-03-06T14:56:28.690Z,52.13
2023-03-06T14:59:04.100Z,50.35
2023-03-06T15:01:39.610Z,49.78
2023-03-06T15:04:25.064Z,51.03
2023-03-06T15:07:00.148Z,48.18
2023-03-06T15:09:35.795Z,48.49
2023-03-06T15:12:30.502Z,47.86
2023-03-06T15:15:05.712Z,46.14
2023-03-06T15:17:41.076Z,46.98
2023-03-06T15:20:42.281Z,45.09
2023-03-06T15:23:20.837Z,47.23
2023-03-06T15:25:57.119Z,44.13
2023-03-06T15:28:35.921Z,42.20
2023-03-06T15:31:21.650Z,43.32
2023-03-06T15:34:00.736Z,46.05
2023-03-06T15:36:37.236Z,40.40
2023-03-06T15:39:47.493Z,41.98
2023-03-06T15:42:22.302Z,40.06
2023-03-06T15:44:56.053Z,43.79
2023-03-06T15:47:28.940Z,40.36
2023-03-06T15:50:01.824Z,40.55
2023-03-06T15:52:36.915Z,42.30
2023-03-06T15:55:12.145Z,42.24
2023-03-06T15:57:50.173Z,42.29
2023-03-06T16:00:28.321Z,44.24
2023-03-06T16:03:02.858Z,42.19
2023-03-06T16:05:35.723Z,41.87
2023-03-06T16:08:10.824Z,41.88
2023-03-06T16:10:45.339Z,43.44
2023-03-06T16:13:26.713Z,42.88
2023-03-06T16:15:59.537Z,44.23
2023-03-06T16:18:32.311Z,43.18
2023-03-06T16:21:06.561Z,46.00
2023-03-06T16:23:41.138Z,44.65
2023-03-06T16:26:20.386Z,45.72
2023-03-06T16:28:53.212Z,46.19
2023-03-06T16:31:26.002Z,46.65
2023-03-06T16:33:58.902Z,47.25
2023-03-06T16:36:32.464Z,47.27
2023-03-06T16:39:07.365Z,49.07
2023-03-06T16:41:40.235Z,49.60
2023-03-06T16:44:13.428Z,49.96
2023-03-06T16:46:48.408Z,52.19
2023-03-06T16:49:23.573Z,51.63
2023-03-06T16:51:56.753Z,57.67
2023-03-06T16:54:30.937Z,57.26
2023-03-06T16:57:03.853Z,58.28
2023-03-06T16:59:36.970Z,59.85
2023-03-06T17:02:10.845Z,62.34
2023-03-06T17:04:43.742Z,61.18
2023-03-06T17:07:16.556Z,64.12
2023-03-06T17:09:50.816Z,70.13
2023-03-06T17:12:23.671Z,72.91
2023-03-06T17:14:56.667Z,74.29
2023-03-06T17:17:29.690Z,75.15
2023-03-06T17:20:03.202Z,74.30
2023-03-06T17:22:36.931Z,75.72
2023-03-06T17:25:11.519Z,74.35
2023-03-06T17:27:44.430Z,73.58
2023-03-06T17:30:17.554Z,72.65
2023-03-06T17:32:50.771Z,72.31
2023-03-06T17:35:23.566Z,73.86
2023-03-06T17:37:58.002Z,74.14
2023-03-06T17:40:34.521Z,72.86
2023-03-06T17:43:07.411Z,71.45
2023-03-06T17:45:40.306Z,73.21
2023-03-06T17:48:13.097Z,72.31
2023-03-06T17:50:53.900Z,72.80
2023-03-06T17:53:27.571Z,72.76
2023-03-06T17:56:03.736Z,73.11
2023-03-06T17:58:36.907Z,74.43
2023-03-06T18:01:13.627Z,73.02
2023-03-06T18:03:48.478Z,73.75
2023-03-06T18:06:22.147Z,75.16
2023-03-06T18:08:58.353Z,74.91
2023-03-06T18:11:32.979Z,76.17
2023-03-06T18:14:05.856Z,76.17
2023-03-06T18:16:38.744Z,76.98
2023-03-06T18:19:12.222Z,76.86
2023-03-06T18:21:47.206Z,77.24
2023-03-06T18:24:20.047Z,76.57
2023-03-06T18:26:54.267Z,78.12
2023-03-06T18:29:27.096Z,76.03
2023-03-06T18:32:01.897Z,75.50
2023-03-06T18:34:35.079Z,76.88
2023-03-06T18:37:07.934Z,77.32
2023-03-06T18:39:40.895Z,78.48
2023-03-06T18:42:15.038Z,77.56
2023-03-06T18:44:48.786Z,77.84
2023-03-06T18:47:22.207Z,77.30
2023-03-06T18:49:55.993Z,77.32
2023-03-06T18:52:28.794Z,78.70
2023-03-06T18:55:01.850Z,78.40
2023-03-06T18:57:36.136Z,78.53
2023-03-06T19:00:10.042Z,78.15
2023-03-06T19:02:42.827Z,78.79
2023-03-06T19:05:15.662Z,80.28
2023-03-06T19:07:48.465Z,80.13
2023-03-06T19:10:21.293Z,80.73
2023-03-06T19:12:55.430Z,81.10
2023-03-06T19:15:28.207Z,81.88
2023-03-06T19:18:01.575Z,81.34
2023-03-06T19:20:34.658Z,82.62
2023-03-06T19:23:08.242Z,82.70
2023-03-06T19:25:41.319Z,81.89
2023-03-06T19:28:15.926Z,83.44
2023-03-06T19:30:48.714Z,82.62
2023-03-06T19:33:21.627Z,81.89
2023-03-06T19:35:54.504Z,81.52
2023-03-06T19:38:27.395Z,81.11
2023-03-06T19:41:00.941Z,81.62
2023-03-06T19:43:35.383Z,82.05
2023-03-06T19:46:12.541Z,81.98
2023-03-06T19:48:45.686Z,82.67
2023-03-06T19:51:18.560Z,82.36
2023-03-06T19:53:51.475Z,80.53
2023-03-06T19:56:26.712Z,79.61
2023-03-06T19:59:00.967Z,80.13
2023-03-06T20:01:34.363Z,79.63
2023-03-06T20:04:07.331Z,80.02
2023-03-06T20:06:40.628Z,79.09
2023-03-06T20:09:13.654Z,79.61
2023-03-06T20:11:46.461Z,79.17
2023-03-06T20:14:20.994Z,79.21
2023-03-06T20:16:54.218Z,78.78
2023-03-06T20:19:27.034Z,78.67
2023-03-06T20:21:59.869Z,78.83
2023-03-06T20:24:32.837Z,78.91
2023-03-06T20:27:06.027Z,78.92
2023-03-06T20:29:43.207Z,78.94
2023-03-06T20:32:16.393Z,79.57
2023-03-06T20:34:49.259Z,79.33
2023-03-06T20:37:22.142Z,79.47
2023-03-06T20:39:55.054Z,79.32
2023-03-06T20:42:28.107Z,79.25
2023-03-06T20:45:02.689Z,78.11
2023-03-06T20:47:35.661Z,78.70
2023-03-06T20:50:09.226Z,78.50
2023-03-06T20:52:42.381Z,78.70
2023-03-06T20:55:15.386Z,77.79
2023-03-06T20:57:50.174Z,77.79
2023-03-06T21:00:24.311Z,76.47
2023-03-06T21:02:57.182Z,76.81
2023-03-06T21:05:29.982Z,76.76
2023-03-06T21:08:02.806Z,76.22
2023-03-06T21:10:37.812Z,76.65
2023-03-06T21:13:10.482Z,76.02
2023-03-06T21:15:47.730Z,76.83
2023-03-06T21:18:21.329Z,77.26
2023-03-06T21:20:54.283Z,77.06
2023-03-06T21:23:27.251Z,77.97
2023-03-06T21:26:00.667Z,78.18
2023-03-06T21:28:33.688Z,78.46
2023-03-06T21:31:09.432Z,79.11
2023-03-06T21:33:42.675Z,79.21
2023-03-06T21:36:16.121Z,79.63
2023-03-06T21:38:50.060Z,80.08
2023-03-06T21:41:25.062Z,80.23
2023-03-06T21:43:58.275Z,80.77
2023-03-06T21:46:33.346Z,81.78
2023-03-06T21:49:06.738Z,81.25
2023-03-06T21:51:39.719Z,81.19
2023-03-06T21:54:12.994Z,82.17
2023-03-06T21:56:45.869Z,82.64
2023-03-06T21:59:18.669Z,83.00
2023-03-06T22:01:52.921Z,83.29
2023-03-06T22:04:25.872Z,82.53
2023-03-06T22:06:58.672Z,83.28
2023-03-06T22:09:31.466Z,83.43
2023-03-06T22:12:04.710Z,84.04
2023-03-06T22:14:37.896Z,85.06
2023-03-06T22:17:12.037Z,85.68
2023-03-06T22:19:44.821Z,87.06
2023-03-06T22:22:17.699Z,86.86
2023-03-06T22:24:50.459Z,88.14
2023-03-06T22:27:23.420Z,89.09
2023-03-06T22:29:56.244Z,89.41
2023-03-06T22:32:30.417Z,89.74
2023-03-06T22:35:03.463Z,90.06
2023-03-06T22:37:36.316Z,91.39
2023-03-06T22:40:10.534Z,90.96
2023-03-06T22:42:43.411Z,92.14
2023-03-06T22:45:16.638Z,92.55
2023-03-06T22:47:53.390Z,93.56
2023-03-06T22:50:28.092Z,92.19
2023-03-06T22:53:01.107Z,92.85
2023-03-06T22:55:35.771Z,93.83
2023-03-06T22:58:08.561Z,93.94
2023-03-06T23:00:41.391Z,94.10
2023-03-06T23:03:15.729Z,94.07
2023-03-06T23:05:48.483Z,94.14
2023-03-06T23:08:21.876Z,94.89
2023-03-06T23:10:54.686Z,95.15
2023-03-06T23:13:46.670Z,95.58
2023-03-06T23:16:38.412Z,95.81
2023-03-06T23:19:31.725Z,96.11
2023-03-06T23:22:22.836Z,96.32
2023-03-06T23:25:14.306Z,96.78
2023-03-06T23:27:50.096Z,96.55
2023-03-06T23:30:24.357Z,97.00
2023-03-06T23:32:57.478Z,96.68
2023-03-06T23:35:33.951Z,96.94
2023-03-06T23:38:07.134Z,97.18
2023-03-06T23:40:40.674Z,97.42
2023-03-06T23:43:13.514Z,98.00
2023-03-06T23:45:53.525Z,97.74
2023-03-06T23:48:27.677Z,97.48
2023-03-06T23:51:05.240Z,97.80
2023-03-06T23:53:38.010Z,97.38
2023-03-06T23:56:11.120Z,98.37
2023-03-06T23:58:45.370Z,98.43
